<?xml version="1.0"?>
<gpx xmlns="http://www.topografix.com/GPX/1/1" xmlns:xsi="http://www.w3.org/2001/XMLSchema-instance" xmlns:wptx1="http://www.garmin.com/xmlschemas/WaypointExtension/v1" xmlns:gpxtrx="http://www.garmin.com/xmlschemas/GpxExtensions/v3" xmlns:gpxtpx="http://www.garmin.com/xmlschemas/TrackPointExtension/v1" xmlns:gpxx="http://www.garmin.com/xmlschemas/GpxExtensions/v3" xmlns:trp="http://www.garmin.com/xmlschemas/TripExtensions/v1" xmlns:adv="http://www.garmin.com/xmlschemas/AdventuresExtensions/v1" xmlns:prs="http://www.garmin.com/xmlschemas/PressureExtension/v1" xmlns:tmd="http://www.garmin.com/xmlschemas/TripMetaDataExtensions/v1" xmlns:vptm="http://www.garmin.com/xmlschemas/ViaPointTransportationModeExtensions/v1" xmlns:ctx="http://www.garmin.com/xmlschemas/CreationTimeExtension/v1" xmlns:gpxacc="http://www.garmin.com/xmlschemas/AccelerationExtension/v1" xmlns:gpxpx="http://www.garmin.com/xmlschemas/PowerExtension/v1" xmlns:vidx1="http://www.garmin.com/xmlschemas/VideoExtension/v1" creator="Garmin Desktop App" version="1.1" xsi:schemaLocation="http://www.topografix.com/GPX/1/1 http://www.topografix.com/GPX/1/1/gpx.xsd http://www.garmin.com/xmlschemas/WaypointExtension/v1 http://www8.garmin.com/xmlschemas/WaypointExtensionv1.xsd http://www.garmin.com/xmlschemas/TrackPointExtension/v1 http://www.garmin.com/xmlschemas/TrackPointExtensionv1.xsd http://www.garmin.com/xmlschemas/GpxExtensions/v3 http://www8.garmin.com/xmlschemas/GpxExtensionsv3.xsd http://www.garmin.com/xmlschemas/ActivityExtension/v1 http://www8.garmin.com/xmlschemas/ActivityExtensionv1.xsd http://www.garmin.com/xmlschemas/AdventuresExtensions/v1 http://www8.garmin.com/xmlschemas/AdventuresExtensionv1.xsd http://www.garmin.com/xmlschemas/PressureExtension/v1 http://www.garmin.com/xmlschemas/PressureExtensionv1.xsd http://www.garmin.com/xmlschemas/TripExtensions/v1 http://www.garmin.com/xmlschemas/TripExtensionsv1.xsd http://www.garmin.com/xmlschemas/TripMetaDataExtensions/v1 http://www.garmin.com/xmlschemas/TripMetaDataExtensionsv1.xsd http://www.garmin.com/xmlschemas/ViaPointTransportationModeExtensions/v1 http://www.garmin.com/xmlschemas/ViaPointTransportationModeExtensionsv1.xsd http://www.garmin.com/xmlschemas/CreationTimeExtension/v1 http://www.garmin.com/xmlschemas/CreationTimeExtensionsv1.xsd http://www.garmin.com/xmlschemas/AccelerationExtension/v1 http://www.garmin.com/xmlschemas/AccelerationExtensionv1.xsd http://www.garmin.com/xmlschemas/PowerExtension/v1 http://www.garmin.com/xmlschemas/PowerExtensionv1.xsd http://www.garmin.com/xmlschemas/VideoExtension/v1 http://www.garmin.com/xmlschemas/VideoExtensionv1.xsd">

  <metadata>
    <link href="http://www.garmin.com">
      <text>Garmin International</text>
    </link>
    <time>2018-02-26T07:32:24Z</time>
    <bounds maxlat="12.721147974953055" maxlon="99.894646005704999" minlat="12.685174020007253" minlon="99.849911034107208"/>
  </metadata>

  <wpt lat="12.705904813483357" lon="99.889427097514272">
    <ele>72</ele>
    <name>Imperial</name>
    <cmt>26-AUG-11 15:49:46</cmt>
    <desc>26-AUG-11 15:49:46</desc>
    <sym>Lodging</sym>
    <type>user</type>
    <extensions>
      <gpxx:WaypointExtension>
        <gpxx:DisplayMode>SymbolOnly</gpxx:DisplayMode>
      </gpxx:WaypointExtension>
      <wptx1:WaypointExtension>
        <wptx1:DisplayMode>SymbolOnly</wptx1:DisplayMode>
      </wptx1:WaypointExtension>
    </extensions>
  </wpt>

  <trk>
    <name>Sunday</name>
    <extensions>
      <gpxx:TrackExtension>
        <gpxx:DisplayColor>Green</gpxx:DisplayColor>
      </gpxx:TrackExtension>
    </extensions>
    <trkseg>
      <trkpt lat="12.706084018573165" lon="99.889377979561687">
        <ele>115.980000000000004</ele>
        <time>2013-07-27T23:40:09Z</time>
      </trkpt>
      <trkpt lat="12.705872040241957" lon="99.889765977859497">
        <ele>115.5</ele>
        <time>2013-07-27T23:40:27Z</time>
      </trkpt>
      <trkpt lat="12.705767014995217" lon="99.889937974512577">
        <ele>115.010000000000005</ele>
        <time>2013-07-27T23:40:34Z</time>
      </trkpt>
      <trkpt lat="12.706284010782838" lon="99.891030974686146">
        <ele>113.569999999999993</ele>
        <time>2013-07-27T23:41:02Z</time>
      </trkpt>
      <trkpt lat="12.706303959712386" lon="99.892149036750197">
        <ele>114.049999999999997</ele>
        <time>2013-07-27T23:41:26Z</time>
      </trkpt>
      <trkpt lat="12.70615803077817" lon="99.892455982044339">
        <ele>114.049999999999997</ele>
        <time>2013-07-27T23:41:34Z</time>
      </trkpt>
      <trkpt lat="12.704573012888432" lon="99.893407998606563">
        <ele>107.810000000000002</ele>
        <time>2013-07-27T23:42:04Z</time>
      </trkpt>
      <trkpt lat="12.701561981812119" lon="99.893561974167824">
        <ele>102.040000000000006</ele>
        <time>2013-07-27T23:43:29Z</time>
      </trkpt>
      <trkpt lat="12.701538009569049" lon="99.893674962222576">
        <ele>102.040000000000006</ele>
        <time>2013-07-27T23:43:35Z</time>
      </trkpt>
      <trkpt lat="12.701635994017124" lon="99.894307963550091">
        <ele>99.150000000000006</ele>
        <time>2013-07-27T23:44:01Z</time>
      </trkpt>
      <trkpt lat="12.705240966752172" lon="99.894167985767126">
        <ele>106.840000000000003</ele>
        <time>2013-07-27T23:46:35Z</time>
      </trkpt>
      <trkpt lat="12.705315984785557" lon="99.893820974975824">
        <ele>106.359999999999999</ele>
        <time>2013-07-27T23:46:49Z</time>
      </trkpt>
      <trkpt lat="12.70557900890708" lon="99.893544036895037">
        <ele>106.840000000000003</ele>
        <time>2013-07-27T23:47:02Z</time>
      </trkpt>
      <trkpt lat="12.706003971397877" lon="99.893417973071337">
        <ele>108.290000000000006</ele>
        <time>2013-07-27T23:47:17Z</time>
      </trkpt>
      <trkpt lat="12.706441003829241" lon="99.893452003598213">
        <ele>110.209999999999994</ele>
        <time>2013-07-27T23:47:32Z</time>
      </trkpt>
      <trkpt lat="12.707866011187434" lon="99.893965981900692">
        <ele>115.010000000000005</ele>
        <time>2013-07-27T23:48:27Z</time>
      </trkpt>
      <trkpt lat="12.708569001406431" lon="99.893547976389527">
        <ele>114.530000000000001</ele>
        <time>2013-07-27T23:48:50Z</time>
      </trkpt>
      <trkpt lat="12.709138970822096" lon="99.893429037183523">
        <ele>111.650000000000006</ele>
        <time>2013-07-27T23:49:01Z</time>
      </trkpt>
      <trkpt lat="12.709847996011376" lon="99.893066016957164">
        <ele>107.319999999999993</ele>
        <time>2013-07-27T23:49:16Z</time>
      </trkpt>
      <trkpt lat="12.710771011188626" lon="99.892912963405252">
        <ele>101.560000000000002</ele>
        <time>2013-07-27T23:49:32Z</time>
      </trkpt>
      <trkpt lat="12.711026994511485" lon="99.893011031672359">
        <ele>101.560000000000002</ele>
        <time>2013-07-27T23:49:38Z</time>
      </trkpt>
      <trkpt lat="12.71129596978426" lon="99.893562979996204">
        <ele>103.959999999999994</ele>
        <time>2013-07-27T23:49:54Z</time>
      </trkpt>
      <trkpt lat="12.711590006947517" lon="99.8937479685992">
        <ele>105.879999999999995</ele>
        <time>2013-07-27T23:50:06Z</time>
      </trkpt>
      <trkpt lat="12.711934000253677" lon="99.893664987757802">
        <ele>107.319999999999993</ele>
        <time>2013-07-27T23:50:19Z</time>
      </trkpt>
      <trkpt lat="12.712319986894727" lon="99.893518975004554">
        <ele>103.480000000000004</ele>
        <time>2013-07-27T23:50:29Z</time>
      </trkpt>
      <trkpt lat="12.71234798245132" lon="99.892727974802256">
        <ele>100.109999999999999</ele>
        <time>2013-07-27T23:50:48Z</time>
      </trkpt>
      <trkpt lat="12.712619975209236" lon="99.892250960692763">
        <ele>98.189999999999998</ele>
        <time>2013-07-27T23:50:58Z</time>
      </trkpt>
      <trkpt lat="12.712901020422578" lon="99.891197020187974">
        <ele>94.829999999999998</ele>
        <time>2013-07-27T23:51:17Z</time>
      </trkpt>
      <trkpt lat="12.71314200013876" lon="99.891030974686146">
        <ele>92.900000000000006</ele>
        <time>2013-07-27T23:51:22Z</time>
      </trkpt>
      <trkpt lat="12.71316303871572" lon="99.890865013003349">
        <ele>92.420000000000002</ele>
        <time>2013-07-27T23:51:26Z</time>
      </trkpt>
      <trkpt lat="12.712929015979171" lon="99.890270987525582">
        <ele>91.459999999999994</ele>
        <time>2013-07-27T23:51:39Z</time>
      </trkpt>
      <trkpt lat="12.711798967793584" lon="99.890203010290861">
        <ele>91.459999999999994</ele>
        <time>2013-07-27T23:52:02Z</time>
      </trkpt>
      <trkpt lat="12.711485987529159" lon="99.88996597006917">
        <ele>90.5</ele>
        <time>2013-07-27T23:52:09Z</time>
      </trkpt>
      <trkpt lat="12.711308039724827" lon="99.889598004519939">
        <ele>89.540000000000006</ele>
        <time>2013-07-27T23:52:18Z</time>
      </trkpt>
      <trkpt lat="12.71127300336957" lon="99.889567997306585">
        <ele>89.060000000000002</ele>
        <time>2013-07-27T23:52:19Z</time>
      </trkpt>
      <trkpt lat="12.710573030635715" lon="99.889509994536638">
        <ele>90.980000000000004</ele>
        <time>2013-07-27T23:52:37Z</time>
      </trkpt>
      <trkpt lat="12.710745027288795" lon="99.888986041769385">
        <ele>91.939999999999998</ele>
        <time>2013-07-27T23:52:52Z</time>
      </trkpt>
      <trkpt lat="12.711626971140504" lon="99.887432958930731">
        <ele>90.980000000000004</ele>
        <time>2013-07-27T23:53:27Z</time>
      </trkpt>
      <trkpt lat="12.712096022441983" lon="99.886079030111432">
        <ele>87.620000000000005</ele>
        <time>2013-07-27T23:53:52Z</time>
      </trkpt>
      <trkpt lat="12.710936972871423" lon="99.885047972202301">
        <ele>87.620000000000005</ele>
        <time>2013-07-27T23:54:21Z</time>
      </trkpt>
      <trkpt lat="12.710210010409355" lon="99.884608006104827">
        <ele>87.620000000000005</ele>
        <time>2013-07-27T23:54:40Z</time>
      </trkpt>
      <trkpt lat="12.70865298807621" lon="99.884660979732871">
        <ele>88.579999999999998</ele>
        <time>2013-07-27T23:55:14Z</time>
      </trkpt>
      <trkpt lat="12.707741959020495" lon="99.884857032448053">
        <ele>87.620000000000005</ele>
        <time>2013-07-27T23:55:31Z</time>
      </trkpt>
      <trkpt lat="12.707332000136375" lon="99.884685035794973">
        <ele>86.180000000000007</ele>
        <time>2013-07-27T23:55:39Z</time>
      </trkpt>
      <trkpt lat="12.707054978236556" lon="99.883525986224413">
        <ele>84.730000000000004</ele>
        <time>2013-07-27T23:57:10Z</time>
      </trkpt>
      <trkpt lat="12.706897985190153" lon="99.883343009278178">
        <ele>85.209999999999994</ele>
        <time>2013-07-27T23:57:15Z</time>
      </trkpt>
      <trkpt lat="12.706406973302364" lon="99.883059030398726">
        <ele>84.25</ele>
        <time>2013-07-27T23:57:26Z</time>
      </trkpt>
      <trkpt lat="12.704386012628675" lon="99.883781969547272">
        <ele>83.769999999999996</ele>
        <time>2013-07-27T23:58:09Z</time>
      </trkpt>
      <trkpt lat="12.704178979620337" lon="99.883653977885842">
        <ele>84.25</ele>
        <time>2013-07-27T23:58:15Z</time>
      </trkpt>
      <trkpt lat="12.704144027084112" lon="99.883538978174329">
        <ele>84.25</ele>
        <time>2013-07-27T23:58:17Z</time>
      </trkpt>
      <trkpt lat="12.703994996845722" lon="99.88283297047019">
        <ele>83.290000000000006</ele>
        <time>2013-07-27T23:58:30Z</time>
      </trkpt>
      <trkpt lat="12.704228013753891" lon="99.881379967555404">
        <ele>83.290000000000006</ele>
        <time>2013-07-27T23:58:59Z</time>
      </trkpt>
      <trkpt lat="12.704386012628675" lon="99.881194978952408">
        <ele>82.329999999999998</ele>
        <time>2013-07-27T23:59:04Z</time>
      </trkpt>
      <trkpt lat="12.705286983400583" lon="99.881320036947727">
        <ele>82.329999999999998</ele>
        <time>2013-07-27T23:59:23Z</time>
      </trkpt>
      <trkpt lat="12.70611897110939" lon="99.881798978894949">
        <ele>82.810000000000002</ele>
        <time>2013-07-27T23:59:45Z</time>
      </trkpt>
      <trkpt lat="12.706949030980468" lon="99.88197198137641">
        <ele>82.329999999999998</ele>
        <time>2013-07-28T00:00:03Z</time>
      </trkpt>
      <trkpt lat="12.707407018169761" lon="99.881576020270586">
        <ele>81.849999999999994</ele>
        <time>2013-07-28T00:00:16Z</time>
      </trkpt>
      <trkpt lat="12.707881014794111" lon="99.881505025550723">
        <ele>82.329999999999998</ele>
        <time>2013-07-28T00:00:26Z</time>
      </trkpt>
      <trkpt lat="12.708734041079879" lon="99.881466971710324">
        <ele>81.370000000000005</ele>
        <time>2013-07-28T00:00:43Z</time>
      </trkpt>
      <trkpt lat="12.708844011649489" lon="99.880950981751084">
        <ele>81.849999999999994</ele>
        <time>2013-07-28T00:00:54Z</time>
      </trkpt>
      <trkpt lat="12.708934033289552" lon="99.880841011181474">
        <ele>80.890000000000001</ele>
        <time>2013-07-28T00:00:57Z</time>
      </trkpt>
      <trkpt lat="12.709726961329579" lon="99.880838999524713">
        <ele>79.930000000000007</ele>
        <time>2013-07-28T00:01:22Z</time>
      </trkpt>
      <trkpt lat="12.710302965715528" lon="99.881749022752047">
        <ele>78.969999999999999</ele>
        <time>2013-07-28T00:02:02Z</time>
      </trkpt>
      <trkpt lat="12.710529025644064" lon="99.881878020241857">
        <ele>78.480000000000004</ele>
        <time>2013-07-28T00:02:38Z</time>
      </trkpt>
      <trkpt lat="12.710710996761918" lon="99.882353022694588">
        <ele>75.599999999999994</ele>
        <time>2013-07-28T00:03:04Z</time>
      </trkpt>
      <trkpt lat="12.710483008995652" lon="99.881764026358724">
        <ele>75.599999999999994</ele>
        <time>2013-07-28T00:05:20Z</time>
      </trkpt>
      <trkpt lat="12.710860027000308" lon="99.881772994995117">
        <ele>77.519999999999996</ele>
        <time>2013-07-28T00:06:27Z</time>
      </trkpt>
      <trkpt lat="12.713243002071977" lon="99.881372004747391">
        <ele>76.079999999999998</ele>
        <time>2013-07-28T00:07:26Z</time>
      </trkpt>
      <trkpt lat="12.713523041456938" lon="99.881072016432881">
        <ele>77.040000000000006</ele>
        <time>2013-07-28T00:07:40Z</time>
      </trkpt>
      <trkpt lat="12.713568974286318" lon="99.880241034552455">
        <ele>76.560000000000002</ele>
        <time>2013-07-28T00:07:52Z</time>
      </trkpt>
      <trkpt lat="12.713884972035885" lon="99.87960803322494">
        <ele>77.040000000000006</ele>
        <time>2013-07-28T00:08:13Z</time>
      </trkpt>
      <trkpt lat="12.714827014133334" lon="99.879393959417939">
        <ele>77.040000000000006</ele>
        <time>2013-07-28T00:08:55Z</time>
      </trkpt>
      <trkpt lat="12.715354990214109" lon="99.879600992426276">
        <ele>77.519999999999996</ele>
        <time>2013-07-28T00:09:10Z</time>
      </trkpt>
      <trkpt lat="12.715224986895919" lon="99.88008001819253">
        <ele>77.519999999999996</ele>
        <time>2013-07-28T00:09:23Z</time>
      </trkpt>
      <trkpt lat="12.714918041601777" lon="99.880454018712044">
        <ele>77.040000000000006</ele>
        <time>2013-07-28T00:09:35Z</time>
      </trkpt>
      <trkpt lat="12.71541902795434" lon="99.881699988618493">
        <ele>75.599999999999994</ele>
        <time>2013-07-28T00:09:57Z</time>
      </trkpt>
      <trkpt lat="12.716161999851465" lon="99.881717003881931">
        <ele>74.159999999999997</ele>
        <time>2013-07-28T00:10:11Z</time>
      </trkpt>
      <trkpt lat="12.716830959543586" lon="99.882250009104609">
        <ele>74.640000000000001</ele>
        <time>2013-07-28T00:10:27Z</time>
      </trkpt>
      <trkpt lat="12.716940008103848" lon="99.882271969690919">
        <ele>74.159999999999997</ele>
        <time>2013-07-28T00:10:29Z</time>
      </trkpt>
      <trkpt lat="12.719503026455641" lon="99.881689008325338">
        <ele>74.159999999999997</ele>
        <time>2013-07-28T00:11:30Z</time>
      </trkpt>
      <trkpt lat="12.719582989811897" lon="99.881660006940365">
        <ele>73.200000000000003</ele>
        <time>2013-07-28T00:11:36Z</time>
      </trkpt>
      <trkpt lat="12.719334969297051" lon="99.879539972171187">
        <ele>76.560000000000002</ele>
        <time>2013-07-28T00:12:48Z</time>
      </trkpt>
      <trkpt lat="12.719684997573495" lon="99.876974020153284">
        <ele>81.370000000000005</ele>
        <time>2013-07-28T00:13:56Z</time>
      </trkpt>
      <trkpt lat="12.720536012202501" lon="99.871191009879112">
        <ele>89.060000000000002</ele>
        <time>2013-07-28T00:16:16Z</time>
      </trkpt>
      <trkpt lat="12.71853500045836" lon="99.870694968849421">
        <ele>85.209999999999994</ele>
        <time>2013-07-28T00:17:59Z</time>
      </trkpt>
      <trkpt lat="12.718136021867394" lon="99.870750959962606">
        <ele>85.209999999999994</ele>
        <time>2013-07-28T00:18:08Z</time>
      </trkpt>
      <trkpt lat="12.71804298274219" lon="99.870730005204678">
        <ele>84.730000000000004</ele>
        <time>2013-07-28T00:18:10Z</time>
      </trkpt>
      <trkpt lat="12.717596981674433" lon="99.870252991095185">
        <ele>84.730000000000004</ele>
        <time>2013-07-28T00:18:25Z</time>
      </trkpt>
      <trkpt lat="12.717508971691132" lon="99.870214015245438">
        <ele>83.769999999999996</ele>
        <time>2013-07-28T00:18:27Z</time>
      </trkpt>
      <trkpt lat="12.717391960322857" lon="99.869870021939278">
        <ele>84.25</ele>
        <time>2013-07-28T00:18:35Z</time>
      </trkpt>
      <trkpt lat="12.717791022732854" lon="99.869135012850165">
        <ele>85.209999999999994</ele>
        <time>2013-07-28T00:19:00Z</time>
      </trkpt>
      <trkpt lat="12.717808037996292" lon="99.868588009849191">
        <ele>85.689999999999998</ele>
        <time>2013-07-28T00:19:15Z</time>
      </trkpt>
      <trkpt lat="12.717812983319163" lon="99.868508968502283">
        <ele>85.209999999999994</ele>
        <time>2013-07-28T00:19:17Z</time>
      </trkpt>
      <trkpt lat="12.718467023223639" lon="99.867495009675622">
        <ele>84.25</ele>
        <time>2013-07-28T00:20:35Z</time>
      </trkpt>
      <trkpt lat="12.718388987705112" lon="99.867052026093006">
        <ele>83.769999999999996</ele>
        <time>2013-07-28T00:22:18Z</time>
      </trkpt>
      <trkpt lat="12.718672966584563" lon="99.866689005866647">
        <ele>84.730000000000004</ele>
        <time>2013-07-28T00:22:46Z</time>
      </trkpt>
      <trkpt lat="12.71870699711144" lon="99.866360016167164">
        <ele>85.209999999999994</ele>
        <time>2013-07-28T00:24:23Z</time>
      </trkpt>
      <trkpt lat="12.718518991023302" lon="99.866066984832287">
        <ele>85.689999999999998</ele>
        <time>2013-07-28T00:24:49Z</time>
      </trkpt>
      <trkpt lat="12.717394977807999" lon="99.865608997642994">
        <ele>85.689999999999998</ele>
        <time>2013-07-28T00:25:58Z</time>
      </trkpt>
      <trkpt lat="12.716982001438737" lon="99.863992966711521">
        <ele>90.980000000000004</ele>
        <time>2013-07-28T00:28:19Z</time>
      </trkpt>
      <trkpt lat="12.716083964332938" lon="99.863758021965623">
        <ele>94.829999999999998</ele>
        <time>2013-07-28T00:28:55Z</time>
      </trkpt>
      <trkpt lat="12.715350966900587" lon="99.863328030332923">
        <ele>97.230000000000004</ele>
        <time>2013-07-28T00:29:27Z</time>
      </trkpt>
      <trkpt lat="12.715589012950659" lon="99.862858979031444">
        <ele>101.560000000000002</ele>
        <time>2013-07-28T00:29:56Z</time>
      </trkpt>
      <trkpt lat="12.716106008738279" lon="99.862520014867187">
        <ele>100.109999999999999</ele>
        <time>2013-07-28T00:30:13Z</time>
      </trkpt>
      <trkpt lat="12.716637002304196" lon="99.861867986619473">
        <ele>98.189999999999998</ele>
        <time>2013-07-28T00:30:38Z</time>
      </trkpt>
      <trkpt lat="12.716999016702175" lon="99.86160303466022">
        <ele>99.150000000000006</ele>
        <time>2013-07-28T00:30:51Z</time>
      </trkpt>
      <trkpt lat="12.717279978096485" lon="99.861449981108308">
        <ele>98.670000000000002</ele>
        <time>2013-07-28T00:30:59Z</time>
      </trkpt>
      <trkpt lat="12.717732014134526" lon="99.860913958400488">
        <ele>95.790000000000006</ele>
        <time>2013-07-28T00:31:27Z</time>
      </trkpt>
      <trkpt lat="12.717443006113172" lon="99.860196970403194">
        <ele>97.709999999999994</ele>
        <time>2013-07-28T00:31:57Z</time>
      </trkpt>
      <trkpt lat="12.717165984213352" lon="99.859893964603543">
        <ele>98.189999999999998</ele>
        <time>2013-07-28T00:32:10Z</time>
      </trkpt>
      <trkpt lat="12.716847974807024" lon="99.859782988205552">
        <ele>100.109999999999999</ele>
        <time>2013-07-28T00:32:22Z</time>
      </trkpt>
      <trkpt lat="12.716698022559285" lon="99.859441006556153">
        <ele>100.109999999999999</ele>
        <time>2013-07-28T00:32:33Z</time>
      </trkpt>
      <trkpt lat="12.716353023424745" lon="99.85876802355051">
        <ele>97.709999999999994</ele>
        <time>2013-07-28T00:32:50Z</time>
      </trkpt>
      <trkpt lat="12.716057980433106" lon="99.858651012182236">
        <ele>98.670000000000002</ele>
        <time>2013-07-28T00:32:58Z</time>
      </trkpt>
      <trkpt lat="12.714684018865228" lon="99.858459988608956">
        <ele>94.349999999999994</ele>
        <time>2013-07-28T00:33:37Z</time>
      </trkpt>
      <trkpt lat="12.713729990646243" lon="99.857635041698813">
        <ele>91.459999999999994</ele>
        <time>2013-07-28T00:34:11Z</time>
      </trkpt>
      <trkpt lat="12.716079019010067" lon="99.856690987944603">
        <ele>102.519999999999996</ele>
        <time>2013-07-28T00:41:07Z</time>
      </trkpt>
      <trkpt lat="12.717213006690145" lon="99.85629603266716">
        <ele>104.439999999999998</ele>
        <time>2013-07-28T00:41:43Z</time>
      </trkpt>
      <trkpt lat="12.717806026339531" lon="99.855879032984376">
        <ele>105.879999999999995</ele>
        <time>2013-07-28T00:42:01Z</time>
      </trkpt>
      <trkpt lat="12.721147974953055" lon="99.852556027472019">
        <ele>99.150000000000006</ele>
        <time>2013-07-28T00:43:29Z</time>
      </trkpt>
      <trkpt lat="12.721007997170091" lon="99.850421994924545">
        <ele>98.189999999999998</ele>
        <time>2013-07-28T00:44:07Z</time>
      </trkpt>
      <trkpt lat="12.720882017165422" lon="99.850356029346585">
        <ele>98.189999999999998</ele>
        <time>2013-07-28T00:44:22Z</time>
      </trkpt>
      <trkpt lat="12.720873970538378" lon="99.850340019911528">
        <ele>96.269999999999996</ele>
        <time>2013-07-28T00:48:35Z</time>
      </trkpt>
      <trkpt lat="12.721032975241542" lon="99.850434986874461">
        <ele>97.709999999999994</ele>
        <time>2013-07-28T00:50:13Z</time>
      </trkpt>
      <trkpt lat="12.721115034073591" lon="99.851297987625003">
        <ele>97.230000000000004</ele>
        <time>2013-07-28T00:50:47Z</time>
      </trkpt>
      <trkpt lat="12.721072034910321" lon="99.851177958771586">
        <ele>97.709999999999994</ele>
        <time>2013-07-28T00:50:53Z</time>
      </trkpt>
      <trkpt lat="12.720583034679294" lon="99.851025994867086">
        <ele>98.189999999999998</ele>
        <time>2013-07-28T00:51:05Z</time>
      </trkpt>
      <trkpt lat="12.718692999333143" lon="99.850708991289139">
        <ele>103.959999999999994</ele>
        <time>2013-07-28T00:52:17Z</time>
      </trkpt>
      <trkpt lat="12.718368032947183" lon="99.850210016593337">
        <ele>106.359999999999999</ele>
        <time>2013-07-28T00:52:39Z</time>
      </trkpt>
      <trkpt lat="12.717549037188292" lon="99.850075989961624">
        <ele>112.609999999999999</ele>
        <time>2013-07-28T00:53:16Z</time>
      </trkpt>
      <trkpt lat="12.717228010296822" lon="99.850033996626735">
        <ele>114.530000000000001</ele>
        <time>2013-07-28T00:53:30Z</time>
      </trkpt>
      <trkpt lat="12.716960962861776" lon="99.849911034107208">
        <ele>115.010000000000005</ele>
        <time>2013-07-28T00:53:43Z</time>
      </trkpt>
      <trkpt lat="12.716529965400696" lon="99.849934000521898">
        <ele>119.819999999999993</ele>
        <time>2013-07-28T00:54:07Z</time>
      </trkpt>
      <trkpt lat="12.715731002390385" lon="99.850067021325231">
        <ele>120.299999999999997</ele>
        <time>2013-07-28T00:54:44Z</time>
      </trkpt>
      <trkpt lat="12.715443000197411" lon="99.850266007706523">
        <ele>120.780000000000001</ele>
        <time>2013-07-28T00:54:58Z</time>
      </trkpt>
      <trkpt lat="12.71522699855268" lon="99.850559961050749">
        <ele>120.299999999999997</ele>
        <time>2013-07-28T00:55:11Z</time>
      </trkpt>
      <trkpt lat="12.715096995234489" lon="99.851732002571225">
        <ele>120.780000000000001</ele>
        <time>2013-07-28T00:55:51Z</time>
      </trkpt>
      <trkpt lat="12.714380007237196" lon="99.851160021498799">
        <ele>127.030000000000001</ele>
        <time>2013-07-28T00:56:43Z</time>
      </trkpt>
      <trkpt lat="12.713606022298336" lon="99.851034041494131">
        <ele>136.159999999999997</ele>
        <time>2013-07-28T01:00:08Z</time>
      </trkpt>
      <trkpt lat="12.713538967072964" lon="99.851035969331861">
        <ele>136.159999999999997</ele>
        <time>2013-07-28T01:00:12Z</time>
      </trkpt>
      <trkpt lat="12.713049966841936" lon="99.850913006812334">
        <ele>130.879999999999995</ele>
        <time>2013-07-28T01:00:43Z</time>
      </trkpt>
      <trkpt lat="12.712536994367838" lon="99.850836982950568">
        <ele>120.780000000000001</ele>
        <time>2013-07-28T01:01:18Z</time>
      </trkpt>
      <trkpt lat="12.712177997455001" lon="99.850901020690799">
        <ele>112.129999999999995</ele>
        <time>2013-07-28T01:02:16Z</time>
      </trkpt>
      <trkpt lat="12.71181296557188" lon="99.85047597438097">
        <ele>115.010000000000005</ele>
        <time>2013-07-28T01:03:09Z</time>
      </trkpt>
      <trkpt lat="12.711137970909476" lon="99.850633973255754">
        <ele>119.340000000000003</ele>
        <time>2013-07-28T01:03:47Z</time>
      </trkpt>
      <trkpt lat="12.710560038685799" lon="99.850541017949581">
        <ele>119.340000000000003</ele>
        <time>2013-07-28T01:04:16Z</time>
      </trkpt>
      <trkpt lat="12.710089981555939" lon="99.850215967744589">
        <ele>115.5</ele>
        <time>2013-07-28T01:04:40Z</time>
      </trkpt>
      <trkpt lat="12.709414986893535" lon="99.850383019074798">
        <ele>112.609999999999999</ele>
        <time>2013-07-28T01:05:06Z</time>
      </trkpt>
      <trkpt lat="12.70875901915133" lon="99.850717959925532">
        <ele>108.769999999999996</ele>
        <time>2013-07-28T01:05:41Z</time>
      </trkpt>
      <trkpt lat="12.708283010870218" lon="99.851105958223343">
        <ele>101.079999999999998</ele>
        <time>2013-07-28T01:09:08Z</time>
      </trkpt>
      <trkpt lat="12.70699898712337" lon="99.851049967110157">
        <ele>95.310000000000002</ele>
        <time>2013-07-28T01:09:43Z</time>
      </trkpt>
      <trkpt lat="12.70658902823925" lon="99.851298993453383">
        <ele>93.390000000000001</ele>
        <time>2013-07-28T01:09:57Z</time>
      </trkpt>
      <trkpt lat="12.705702977254987" lon="99.852090999484062">
        <ele>90.980000000000004</ele>
        <time>2013-07-28T01:10:32Z</time>
      </trkpt>
      <trkpt lat="12.705890983343124" lon="99.853392038494349">
        <ele>92.420000000000002</ele>
        <time>2013-07-28T01:12:53Z</time>
      </trkpt>
      <trkpt lat="12.706078989431262" lon="99.853752963244915">
        <ele>91.939999999999998</ele>
        <time>2013-07-28T01:13:05Z</time>
      </trkpt>
      <trkpt lat="12.706597996875644" lon="99.854390993714333">
        <ele>87.620000000000005</ele>
        <time>2013-07-28T01:13:27Z</time>
      </trkpt>
      <trkpt lat="12.707176012918353" lon="99.855676023289561">
        <ele>83.769999999999996</ele>
        <time>2013-07-28T01:13:58Z</time>
      </trkpt>
      <trkpt lat="12.707627965137362" lon="99.855969976633787">
        <ele>83.290000000000006</ele>
        <time>2013-07-28T01:14:12Z</time>
      </trkpt>
      <trkpt lat="12.707639029249549" lon="99.856411032378674">
        <ele>83.290000000000006</ele>
        <time>2013-07-28T01:14:23Z</time>
      </trkpt>
      <trkpt lat="12.707673981785774" lon="99.858226971700788">
        <ele>77.519999999999996</ele>
        <time>2013-07-28T01:16:01Z</time>
      </trkpt>
      <trkpt lat="12.707152040675282" lon="99.858753019943833">
        <ele>76.560000000000002</ele>
        <time>2013-07-28T01:16:22Z</time>
      </trkpt>
      <trkpt lat="12.70626800134778" lon="99.859232967719436">
        <ele>75.120000000000005</ele>
        <time>2013-07-28T01:16:45Z</time>
      </trkpt>
      <trkpt lat="12.705513965338469" lon="99.859410999342799">
        <ele>73.200000000000003</ele>
        <time>2013-07-28T01:19:21Z</time>
      </trkpt>
      <trkpt lat="12.703903969377279" lon="99.859211007133126">
        <ele>70.790000000000006</ele>
        <time>2013-07-28T01:19:57Z</time>
      </trkpt>
      <trkpt lat="12.703577997162938" lon="99.858990982174873">
        <ele>70.790000000000006</ele>
        <time>2013-07-28T01:20:08Z</time>
      </trkpt>
      <trkpt lat="12.70343198440969" lon="99.85859502106905">
        <ele>72.239999999999995</ele>
        <time>2013-07-28T01:20:20Z</time>
      </trkpt>
      <trkpt lat="12.703148005530238" lon="99.858549004420638">
        <ele>73.200000000000003</ele>
        <time>2013-07-28T01:20:31Z</time>
      </trkpt>
      <trkpt lat="12.702756989747286" lon="99.858569959178567">
        <ele>73.200000000000003</ele>
        <time>2013-07-28T01:20:43Z</time>
      </trkpt>
      <trkpt lat="12.702453983947635" lon="99.85859602689743">
        <ele>71.760000000000005</ele>
        <time>2013-07-28T01:23:28Z</time>
      </trkpt>
      <trkpt lat="12.702687000855803" lon="99.859101036563516">
        <ele>71.760000000000005</ele>
        <time>2013-07-28T01:23:50Z</time>
      </trkpt>
      <trkpt lat="12.702607959508896" lon="99.85930697992444">
        <ele>69.349999999999994</ele>
        <time>2013-07-28T01:23:55Z</time>
      </trkpt>
      <trkpt lat="12.702435962855816" lon="99.859351990744472">
        <ele>69.349999999999994</ele>
        <time>2013-07-28T01:24:00Z</time>
      </trkpt>
      <trkpt lat="12.701287977397442" lon="99.859301028773189">
        <ele>67.430000000000007</ele>
        <time>2013-07-28T01:24:29Z</time>
      </trkpt>
      <trkpt lat="12.700692024081945" lon="99.859132971614599">
        <ele>66.950000000000003</ele>
        <time>2013-07-28T01:24:44Z</time>
      </trkpt>
      <trkpt lat="12.699576979503036" lon="99.859319971874356">
        <ele>66.469999999999999</ele>
        <time>2013-07-28T01:25:11Z</time>
      </trkpt>
      <trkpt lat="12.698672991245985" lon="99.859452992677689">
        <ele>65.030000000000001</ele>
        <time>2013-07-28T01:25:32Z</time>
      </trkpt>
      <trkpt lat="12.698007971048355" lon="99.859777959063649">
        <ele>64.069999999999993</ele>
        <time>2013-07-28T01:25:50Z</time>
      </trkpt>
      <trkpt lat="12.698450032621622" lon="99.860062021762133">
        <ele>63.579999999999998</ele>
        <time>2013-07-28T01:26:13Z</time>
      </trkpt>
      <trkpt lat="12.698766030371189" lon="99.86053098924458">
        <ele>64.549999999999997</ele>
        <time>2013-07-28T01:26:29Z</time>
      </trkpt>
      <trkpt lat="12.699106000363827" lon="99.860710026696324">
        <ele>65.030000000000001</ele>
        <time>2013-07-28T01:26:41Z</time>
      </trkpt>
      <trkpt lat="12.699175989255309" lon="99.862053981050849">
        <ele>65.510000000000005</ele>
        <time>2013-07-28T01:27:20Z</time>
      </trkpt>
      <trkpt lat="12.697966983541846" lon="99.862477015703917">
        <ele>63.579999999999998</ele>
        <time>2013-07-28T01:28:03Z</time>
      </trkpt>
      <trkpt lat="12.698381971567869" lon="99.864915981888771">
        <ele>64.069999999999993</ele>
        <time>2013-07-28T01:29:10Z</time>
      </trkpt>
      <trkpt lat="12.698135962709785" lon="99.86506400629878">
        <ele>64.069999999999993</ele>
        <time>2013-07-28T01:29:17Z</time>
      </trkpt>
      <trkpt lat="12.696974985301495" lon="99.865636993199587">
        <ele>62.140000000000001</ele>
        <time>2013-07-28T01:29:49Z</time>
      </trkpt>
      <trkpt lat="12.697011027485132" lon="99.865834973752499">
        <ele>61.18</ele>
        <time>2013-07-28T01:30:01Z</time>
      </trkpt>
      <trkpt lat="12.697549983859062" lon="99.866145020350814">
        <ele>61.659999999999997</ele>
        <time>2013-07-28T01:30:19Z</time>
      </trkpt>
      <trkpt lat="12.697858018800616" lon="99.866527989506721">
        <ele>62.140000000000001</ele>
        <time>2013-07-28T01:30:32Z</time>
      </trkpt>
      <trkpt lat="12.697806973010302" lon="99.866872988641262">
        <ele>62.619999999999997</ele>
        <time>2013-07-28T01:30:58Z</time>
      </trkpt>
      <trkpt lat="12.697634976357222" lon="99.868925968185067">
        <ele>61.18</ele>
        <time>2013-07-28T01:31:48Z</time>
      </trkpt>
      <trkpt lat="12.696407027542591" lon="99.868219960480928">
        <ele>60.219999999999999</ele>
        <time>2013-07-28T01:32:30Z</time>
      </trkpt>
      <trkpt lat="12.695397008210421" lon="99.867871021851897">
        <ele>59.740000000000002</ele>
        <time>2013-07-28T01:32:58Z</time>
      </trkpt>
      <trkpt lat="12.695133984088898" lon="99.867685027420521">
        <ele>59.259999999999998</ele>
        <time>2013-07-28T01:33:15Z</time>
      </trkpt>
      <trkpt lat="12.695326013490558" lon="99.868552973493934">
        <ele>54.450000000000003</ele>
        <time>2013-07-28T01:33:42Z</time>
      </trkpt>
      <trkpt lat="12.695153011009097" lon="99.868575017899275">
        <ele>55.409999999999997</ele>
        <time>2013-07-28T01:33:51Z</time>
      </trkpt>
      <trkpt lat="12.694821003824472" lon="99.869557963684201">
        <ele>54.93</ele>
        <time>2013-07-28T01:34:36Z</time>
      </trkpt>
      <trkpt lat="12.694611959159374" lon="99.869638010859489">
        <ele>53.490000000000002</ele>
        <time>2013-07-28T01:35:18Z</time>
      </trkpt>
      <trkpt lat="12.696101004257798" lon="99.870013017207384">
        <ele>56.859999999999999</ele>
        <time>2013-07-28T01:36:33Z</time>
      </trkpt>
      <trkpt lat="12.696295967325568" lon="99.870418030768633">
        <ele>59.740000000000002</ele>
        <time>2013-07-28T01:37:03Z</time>
      </trkpt>
      <trkpt lat="12.695614015683532" lon="99.870380982756615">
        <ele>64.069999999999993</ele>
        <time>2013-07-28T01:38:09Z</time>
      </trkpt>
      <trkpt lat="12.694803988561034" lon="99.870206974446774">
        <ele>65.030000000000001</ele>
        <time>2013-07-28T01:38:42Z</time>
      </trkpt>
      <trkpt lat="12.694340972229838" lon="99.870764035731554">
        <ele>66.950000000000003</ele>
        <time>2013-07-28T01:39:11Z</time>
      </trkpt>
      <trkpt lat="12.69363597035408" lon="99.870989006012678">
        <ele>70.790000000000006</ele>
        <time>2013-07-28T01:39:46Z</time>
      </trkpt>
      <trkpt lat="12.692781016230583" lon="99.871627958491445">
        <ele>74.640000000000001</ele>
        <time>2013-07-28T01:40:34Z</time>
      </trkpt>
      <trkpt lat="12.692395029589534" lon="99.871803978458047">
        <ele>75.120000000000005</ele>
        <time>2013-07-28T01:40:52Z</time>
      </trkpt>
      <trkpt lat="12.692397041246295" lon="99.871985027566552">
        <ele>76.079999999999998</ele>
        <time>2013-07-28T01:41:02Z</time>
      </trkpt>
      <trkpt lat="12.692572977393866" lon="99.872056022286415">
        <ele>76.560000000000002</ele>
        <time>2013-07-28T01:41:11Z</time>
      </trkpt>
      <trkpt lat="12.692547999322414" lon="99.87395896576345">
        <ele>82.329999999999998</ele>
        <time>2013-07-28T01:44:57Z</time>
      </trkpt>
      <trkpt lat="12.69254095852375" lon="99.874786008149385">
        <ele>83.290000000000006</ele>
        <time>2013-07-28T01:45:27Z</time>
      </trkpt>
      <trkpt lat="12.692395029589534" lon="99.87485901452601">
        <ele>84.730000000000004</ele>
        <time>2013-07-28T01:45:37Z</time>
      </trkpt>
      <trkpt lat="12.692412966862321" lon="99.875438036397099">
        <ele>84.730000000000004</ele>
        <time>2013-07-28T01:45:55Z</time>
      </trkpt>
      <trkpt lat="12.691697990521789" lon="99.875361006706953">
        <ele>89.060000000000002</ele>
        <time>2013-07-28T01:46:23Z</time>
      </trkpt>
      <trkpt lat="12.691010003909469" lon="99.875015001744032">
        <ele>89.540000000000006</ele>
        <time>2013-07-28T01:46:47Z</time>
      </trkpt>
      <trkpt lat="12.690145997330546" lon="99.874775027856231">
        <ele>87.140000000000001</ele>
        <time>2013-07-28T01:47:06Z</time>
      </trkpt>
      <trkpt lat="12.689017960801721" lon="99.874504962936044">
        <ele>81.370000000000005</ele>
        <time>2013-07-28T01:47:26Z</time>
      </trkpt>
      <trkpt lat="12.688611019402742" lon="99.87421696074307">
        <ele>78.480000000000004</ele>
        <time>2013-07-28T01:48:35Z</time>
      </trkpt>
      <trkpt lat="12.68843499943614" lon="99.873540038242936">
        <ele>74.640000000000001</ele>
        <time>2013-07-28T01:48:47Z</time>
      </trkpt>
      <trkpt lat="12.688097041100264" lon="99.873379021883011">
        <ele>72.239999999999995</ele>
        <time>2013-07-28T01:48:53Z</time>
      </trkpt>
      <trkpt lat="12.687378041446209" lon="99.873473988845944">
        <ele>68.870000000000005</ele>
        <time>2013-07-28T01:49:07Z</time>
      </trkpt>
      <trkpt lat="12.687525982037187" lon="99.874235987663269">
        <ele>69.349999999999994</ele>
        <time>2013-07-28T01:50:24Z</time>
      </trkpt>
      <trkpt lat="12.687372006475925" lon="99.87451602704823">
        <ele>68.870000000000005</ele>
        <time>2013-07-28T01:50:32Z</time>
      </trkpt>
      <trkpt lat="12.687215013429523" lon="99.87455802038312">
        <ele>68.870000000000005</ele>
        <time>2013-07-28T01:50:35Z</time>
      </trkpt>
      <trkpt lat="12.686913013458252" lon="99.874907964840531">
        <ele>66.950000000000003</ele>
        <time>2013-07-28T01:50:44Z</time>
      </trkpt>
      <trkpt lat="12.687152987346053" lon="99.875630987808108">
        <ele>65.989999999999995</ele>
        <time>2013-07-28T01:50:57Z</time>
      </trkpt>
      <trkpt lat="12.690078020095825" lon="99.876722982153296">
        <ele>75.120000000000005</ele>
        <time>2013-07-28T01:52:41Z</time>
      </trkpt>
      <trkpt lat="12.691769991070032" lon="99.876883998513222">
        <ele>77.519999999999996</ele>
        <time>2013-07-28T01:53:29Z</time>
      </trkpt>
      <trkpt lat="12.693282002583146" lon="99.877086002379656">
        <ele>75.599999999999994</ele>
        <time>2013-07-28T01:54:01Z</time>
      </trkpt>
      <trkpt lat="12.694411966949701" lon="99.877584977075458">
        <ele>73.680000000000007</ele>
        <time>2013-07-28T01:54:41Z</time>
      </trkpt>
      <trkpt lat="12.694412972778082" lon="99.877580031752586">
        <ele>72.719999999999999</ele>
        <time>2013-07-28T01:56:01Z</time>
      </trkpt>
      <trkpt lat="12.694240976125002" lon="99.877587994560599">
        <ele>74.159999999999997</ele>
        <time>2013-07-28T01:57:00Z</time>
      </trkpt>
      <trkpt lat="12.694027991965413" lon="99.877887982875109">
        <ele>76.560000000000002</ele>
        <time>2013-07-28T01:57:16Z</time>
      </trkpt>
      <trkpt lat="12.692996012046933" lon="99.878554008901119">
        <ele>76.560000000000002</ele>
        <time>2013-07-28T01:57:51Z</time>
      </trkpt>
      <trkpt lat="12.692906996235251" lon="99.879985973238945">
        <ele>78.969999999999999</ele>
        <time>2013-07-28T01:59:13Z</time>
      </trkpt>
      <trkpt lat="12.693356014788151" lon="99.881018036976457">
        <ele>81.849999999999994</ele>
        <time>2013-07-28T01:59:54Z</time>
      </trkpt>
      <trkpt lat="12.693608980625868" lon="99.88169202581048">
        <ele>80.409999999999997</ele>
        <time>2013-07-28T02:00:12Z</time>
      </trkpt>
      <trkpt lat="12.693395996466279" lon="99.88194901496172">
        <ele>78.969999999999999</ele>
        <time>2013-07-28T02:00:21Z</time>
      </trkpt>
      <trkpt lat="12.691994039341807" lon="99.881981033831835">
        <ele>73.680000000000007</ele>
        <time>2013-07-28T02:00:53Z</time>
      </trkpt>
      <trkpt lat="12.690337020903826" lon="99.882250009104609">
        <ele>67.909999999999997</ele>
        <time>2013-07-28T02:01:29Z</time>
      </trkpt>
      <trkpt lat="12.689751964062452" lon="99.882717970758677">
        <ele>64.069999999999993</ele>
        <time>2013-07-28T02:01:53Z</time>
      </trkpt>
      <trkpt lat="12.689472008496523" lon="99.883137987926602">
        <ele>62.140000000000001</ele>
        <time>2013-07-28T02:02:10Z</time>
      </trkpt>
      <trkpt lat="12.688635997474194" lon="99.883760008960962">
        <ele>59.740000000000002</ele>
        <time>2013-07-28T02:02:40Z</time>
      </trkpt>
      <trkpt lat="12.688231989741325" lon="99.883780041709542">
        <ele>59.259999999999998</ele>
        <time>2013-07-28T02:02:52Z</time>
      </trkpt>
      <trkpt lat="12.687502009794116" lon="99.883190961554646">
        <ele>58.299999999999997</ele>
        <time>2013-07-28T02:03:18Z</time>
      </trkpt>
      <trkpt lat="12.687329007312655" lon="99.882796006277204">
        <ele>59.259999999999998</ele>
        <time>2013-07-28T02:03:52Z</time>
      </trkpt>
      <trkpt lat="12.68718701787293" lon="99.882758036255836">
        <ele>58.780000000000001</ele>
        <time>2013-07-28T02:03:59Z</time>
      </trkpt>
      <trkpt lat="12.685174020007253" lon="99.885263973847032">
        <ele>57.340000000000003</ele>
        <time>2013-07-28T02:05:05Z</time>
      </trkpt>
      <trkpt lat="12.685220958665013" lon="99.885438987985253">
        <ele>57.340000000000003</ele>
        <time>2013-07-28T02:05:10Z</time>
      </trkpt>
      <trkpt lat="12.686417978256941" lon="99.885942991822958">
        <ele>57.82</ele>
        <time>2013-07-28T02:05:37Z</time>
      </trkpt>
      <trkpt lat="12.686528032645583" lon="99.886252032592893">
        <ele>57.82</ele>
        <time>2013-07-28T02:05:45Z</time>
      </trkpt>
      <trkpt lat="12.687498992308974" lon="99.886582028120756">
        <ele>58.299999999999997</ele>
        <time>2013-07-28T02:06:08Z</time>
      </trkpt>
      <trkpt lat="12.68766101449728" lon="99.886756958439946">
        <ele>58.299999999999997</ele>
        <time>2013-07-28T02:06:14Z</time>
      </trkpt>
      <trkpt lat="12.686727019026875" lon="99.88846099935472">
        <ele>58.299999999999997</ele>
        <time>2013-07-28T02:06:59Z</time>
      </trkpt>
      <trkpt lat="12.686597015708685" lon="99.888998027890921">
        <ele>58.299999999999997</ele>
        <time>2013-07-28T02:07:11Z</time>
      </trkpt>
      <trkpt lat="12.686232989653945" lon="99.889374962076545">
        <ele>58.780000000000001</ele>
        <time>2013-07-28T02:07:23Z</time>
      </trkpt>
      <trkpt lat="12.686170963570476" lon="99.889826998114586">
        <ele>58.780000000000001</ele>
        <time>2013-07-28T02:07:37Z</time>
      </trkpt>
      <trkpt lat="12.68673699349165" lon="99.889959013089538">
        <ele>58.299999999999997</ele>
        <time>2013-07-28T02:08:23Z</time>
      </trkpt>
      <trkpt lat="12.686460977420211" lon="99.889864968135953">
        <ele>58.299999999999997</ele>
        <time>2013-07-28T02:08:58Z</time>
      </trkpt>
      <trkpt lat="12.686446979641914" lon="99.889996983110905">
        <ele>59.259999999999998</ele>
        <time>2013-07-28T02:09:34Z</time>
      </trkpt>
      <trkpt lat="12.687409976497293" lon="99.890357991680503">
        <ele>59.259999999999998</ele>
        <time>2013-07-28T02:11:01Z</time>
      </trkpt>
      <trkpt lat="12.687635030597448" lon="99.89060802385211">
        <ele>59.740000000000002</ele>
        <time>2013-07-28T02:11:08Z</time>
      </trkpt>
      <trkpt lat="12.687782971188426" lon="99.891277989372611">
        <ele>59.259999999999998</ele>
        <time>2013-07-28T02:11:22Z</time>
      </trkpt>
      <trkpt lat="12.687648022547364" lon="99.891528021544218">
        <ele>58.780000000000001</ele>
        <time>2013-07-28T02:11:29Z</time>
      </trkpt>
      <trkpt lat="12.686625011265278" lon="99.891786016523838">
        <ele>58.780000000000001</ele>
        <time>2013-07-28T02:11:50Z</time>
      </trkpt>
      <trkpt lat="12.685955967754126" lon="99.892145013436675">
        <ele>60.219999999999999</ele>
        <time>2013-07-28T02:12:06Z</time>
      </trkpt>
      <trkpt lat="12.685812972486019" lon="99.89237199537456">
        <ele>58.780000000000001</ele>
        <time>2013-07-28T02:12:12Z</time>
      </trkpt>
      <trkpt lat="12.685746001079679" lon="99.893113039433956">
        <ele>61.18</ele>
        <time>2013-07-28T02:12:29Z</time>
      </trkpt>
      <trkpt lat="12.68663096241653" lon="99.894435033202171">
        <ele>63.579999999999998</ele>
        <time>2013-07-28T02:13:02Z</time>
      </trkpt>
      <trkpt lat="12.68667102791369" lon="99.894469985738397">
        <ele>63.100000000000001</ele>
        <time>2013-07-28T02:13:03Z</time>
      </trkpt>
      <trkpt lat="12.687039999291301" lon="99.894646005704999">
        <ele>64.069999999999993</ele>
        <time>2013-07-28T02:13:11Z</time>
      </trkpt>
      <trkpt lat="12.688647983595729" lon="99.894606024026871">
        <ele>66.469999999999999</ele>
        <time>2013-07-28T02:13:41Z</time>
      </trkpt>
      <trkpt lat="12.693406976759434" lon="99.894436961039901">
        <ele>66.469999999999999</ele>
        <time>2013-07-28T02:14:58Z</time>
      </trkpt>
      <trkpt lat="12.693824982270598" lon="99.894214002415538">
        <ele>66.469999999999999</ele>
        <time>2013-07-28T02:15:05Z</time>
      </trkpt>
      <trkpt lat="12.694195965304971" lon="99.893878977745771">
        <ele>65.030000000000001</ele>
        <time>2013-07-28T02:15:12Z</time>
      </trkpt>
      <trkpt lat="12.694732993841171" lon="99.893673034384847">
        <ele>65.510000000000005</ele>
        <time>2013-07-28T02:15:20Z</time>
      </trkpt>
      <trkpt lat="12.698080977424979" lon="99.89353297278285">
        <ele>69.829999999999998</ele>
        <time>2013-07-28T02:16:14Z</time>
      </trkpt>
      <trkpt lat="12.6989830378443" lon="99.893502965569496">
        <ele>70.310000000000002</ele>
        <time>2013-07-28T02:16:31Z</time>
      </trkpt>
      <trkpt lat="12.70454803481698" lon="99.89331403747201">
        <ele>66.950000000000003</ele>
        <time>2013-07-28T02:17:45Z</time>
      </trkpt>
      <trkpt lat="12.706198012456298" lon="99.892339976504445">
        <ele>73.200000000000003</ele>
        <time>2013-07-28T02:18:35Z</time>
      </trkpt>
      <trkpt lat="12.706197006627917" lon="99.891063999384642">
        <ele>73.680000000000007</ele>
        <time>2013-07-28T02:19:08Z</time>
      </trkpt>
      <trkpt lat="12.705749999731779" lon="99.889897992834449">
        <ele>74.640000000000001</ele>
        <time>2013-07-28T02:19:41Z</time>
      </trkpt>
      <trkpt lat="12.70602903328836" lon="99.889494990929961">
        <ele>74.640000000000001</ele>
        <time>2013-07-28T02:20:01Z</time>
      </trkpt>
      <trkpt lat="12.705772966146469" lon="99.889268008992076">
        <ele>76.079999999999998</ele>
        <time>2013-07-28T02:22:12Z</time>
      </trkpt>
      <trkpt lat="12.705553025007248" lon="99.888946982100606">
        <ele>75.599999999999994</ele>
        <time>2013-07-28T02:22:20Z</time>
      </trkpt>
      <trkpt lat="12.705677999183536" lon="99.888422023504972">
        <ele>76.560000000000002</ele>
        <time>2013-07-28T02:50:31Z</time>
      </trkpt>
    </trkseg>
  </trk>

</gpx>
